Soaring Guidance
Issued by NWS Reno, NV

Home | Current Version | Previous Version | Text Only | Print | Product List | Glossary On
Versions: 1 2 3 4 5 6 7 8 9 10 11 12 13 14
000
UXUS97 KREV 031350
SRGREV

SOARING FORECAST
NATIONAL WEATHER SERVICE - RENO NV
700 AM PDT SUN MAY 3 2015

THIS SOARING FORECAST IS FOR THE EASTERN SIERRA AND WESTERN NEVADA
WITH SPECIFIC INDICES FOR THE GREATER RENO AREA.

THIS FORECAST IS NOT UPDATED.

FOR CURRENT FLIGHT CONDITIONS...FORECASTS...AND ADVISORIES...ACCESS
YOUR LOCAL BRIEFING OUTLET OR FLIGHT SERVICE STATION.

*******************************************************************
LOCAL INDICES FOR RENO:                   TODAY     YESTERDAY
MAXIMUM TEMPERATURE AT RENO...(DEG F)...     81
TRIGGER TEMPERATURE...........(DEG F)...     64          67
   EXCEEDED YESTERDAY BY 17Z
MAXIMUM ALTITUDE..............(FT MSL)..  18000       17700
SOARING INDEX.................(FPM).....   1083        1131
FORECASTED K-INDEX.........VALID 18Z....     17          21
FORECASTED K-INDEX.........VALID 00Z....     20          23
FORECASTED LIFTED INDEX....VALID 18Z....      4           3
FORECASTED LIFTED INDEX....VALID 00Z....      1           1

AFTERNOON WINDS ALOFT FORECAST
MSL (FT) WIND/TEMP
9000  2910/+09
10000 2909/+06
12000 2907/+00
14000 2508/-05
16000 2409/-10
18000 2311/-16
24000 2311/-28
30000 2112/-45
34000 2009/-55
39000 2212/-58

SLIDE MOUNTAIN DATA:
 SLD HR 1220 M 36/19/2308/M  /SLIDE MTN UNOFFICIAL OBSERVATION

RENO TAF FORECAST:
KRNO 031120Z 0312/0412 VRB03KT P6SM FEW110
     FM032200 28009G19KT P6SM SCT150
     FM040000 29015G25KT P6SM SCT150
     FM040800 VRB04KT P6SM SCT150

CARSON CITY TAF FORECAST:
KCXP 031120Z 0312/0412 VRB03KT P6SM SCT150
     FM032200 26007G17KT P6SM SCT250
     FM040800 VRB04KT P6SM SCT250

OUTLOOK FOR THE RENO-CARSON CITY-MINDEN AREA:
.MONDAY...PARTLY CLOUDY WITH ISOLATED SHOWERS IN THE MORNING...
THEN MOSTLY CLOUDY WITH ISOLATED SHOWERS AND THUNDERSTORMS IN THE
AFTERNOON. HIGHS 72 TO 82. LIGHT WINDS BECOMING WEST AROUND
10 MPH IN THE AFTERNOON.

SUNRISE AND SUNSET
MAY  3 2015...........SUNRISE   558 AM PDT   SUNSET   755 PM PDT
MAY  4 2015...........SUNRISE   557 AM PDT   SUNSET   756 PM PDT



THIS PRODUCT IS ROUTINELY PREPARED BY 700 AM AND IS
DISTRIBUTED TO THE RENO FLIGHT SERVICE STATION AS WELL AS THE
NATIONAL WEATHER SERVICE WORLD WIDE WEB HOMEPAGE AT:
       HTTP://WWW.WEATHER.GOV/RENO






USA.gov is the U.S. government's official web portal to all federal, state and local government web resources and services.